Linefork, Kentucky
Current Conditions -  °F | °C
As of 8:35 PM on Tuesday 25 Nov 2014 (Local Time) from KLNP Reporting Station
Clear Clear  
Wind Chill: 42°   Ceiling: Unl
Heat Index: 45°   Visibility: 10mi
Dew Point: 23°   Wind: 5mph
Humidity: 43%   Direction: 360°N
Pressure: 30.1"   Gusts: NA
Location:  37.02°N, 82.96°W
Report Text: KLNP 260135Z AUTO 36004KT 10SM CLR 07/M05 A3010 RMK AO2
Loading
Personal Weather Stations






























Interactive Weather Map New forecast layout! Learn more

10-Day Weather Forecast

Advertisements
Track Severe Weather on mobile